KRFD/RFD METAR and TAF weather

Enter ICAO airport designator
Station Type Date Time Source
KRFD METAR 2020/01/23 17:54 UTC NOAA

KRFD 231754Z 14007KT 4SM -SN BR OVC008 01/M01 A3003 RMK AO2 CIG 007V012 SLP178 4/004 933005 P0000 60003 T00061011 10006 21011 58007


Station Type Date Time Source
KRFD Decoded METAR 2020/01/23 17:54 UTC NOAA

GREATER ROCKFORD AIRPORT, IL, United States (KRFD) 42-12N 89-06W 221M
Jan 23, 2020 - 12:54 PM EST / 2020.01.23 1754 UTC
Wind: from the SE (140 degrees) at 8 MPH (7 KT):0
Visibility: 4 mile(s):0
Sky conditions: overcast
Weather: light snow; mist; 4 inches of snow on ground
Precipitation last hour: A trace
Temperature: 33.1 F (0.6 C)
Windchill: 26 F (-3 C):1
Dew Point: 30.0 F (-1.1 C)
Relative Humidity: 88%
Pressure (altimeter): 30.03 in. Hg (1016 hPa)
Pressure tendency: 0.02 inches (0.7 hPa) lower than three hours ago
ob: KRFD 231754Z 14007KT 4SM -SN BR OVC008 01/M01 A3003 RMK AO2 CIG 007V012 SLP178 4/004 933005 P0000 60003 T00061011 10006 21011 58007
cycle: 18

Station Type Date Time Source
KRFD TAF 2020/01/23 18:54 UTC NOAA

TAF KRFD 231747Z 2318/2418 15007KT 3SM -SNDZ BR OVC008
FM232100 14007KT 3SM -DZ BR OVC006
FM240700 08010KT 1SM -SN BR OVC004
FM241300 07006KT 3SM -SNRA SCT003 OVC005

Example: see airport list